Time;durP1;ratioP1;P1;durP2;ratioP2;P2;SDS_P1;SDS_P2;PMS_P1;PMS_P2;Temp;Humidity;BMP_temperature;BMP_pressure;BME280_temperature;BME280_humidity;BME280_pressure;Samples;Min_cycle;Max_cycle;Signal;HPM_P1;HPM_P2
2022/11/08 00:02:14;;;;;;;10.30;1.58;;;;;;;9.04;100.00;98304.59;15279867;19;20791;-63
2022/11/08 00:18:55;;;;;;;3.72;1.10;;;;;;;8.96;100.00;98292.94;15271242;19;20018;-50
2022/11/08 00:24:22;;;;;;;5.55;1.40;;;;;;;8.97;100.00;98305.38;15277437;19;20014;-55
2022/11/08 00:29:47;;;;;;;4.50;1.27;;;;;;;9.00;100.00;98305.03;15278662;19;20003;-50
2022/11/08 00:35:12;;;;;;;4.90;1.40;;;;;;;8.99;100.00;98306.88;15271076;19;20025;-56
2022/11/08 00:40:39;;;;;;;5.10;1.50;;;;;;;8.96;100.00;98299.13;15267811;19;20026;-55
2022/11/08 00:46:04;;;;;;;4.35;1.30;;;;;;;8.94;100.00;98295.75;15271611;19;20471;-56
2022/11/08 00:51:28;;;;;;;5.45;1.50;;;;;;;8.92;100.00;98295.91;15275037;19;20018;-52
2022/11/08 00:56:55;;;;;;;4.25;1.30;;;;;;;8.94;100.00;98295.75;15269172;19;20018;-56
2022/11/08 01:02:19;;;;;;;5.40;1.50;;;;;;;8.93;100.00;98302.97;15275332;19;20340;-53
2022/11/08 01:07:50;;;;;;;3.00;1.25;;;;;;;8.94;100.00;98296.59;15267746;19;20043;-57
2022/11/08 01:13:18;;;;;;;6.13;1.70;;;;;;;8.97;100.00;98300.00;15266843;19;20014;-51
2022/11/08 01:18:43;;;;;;;5.03;1.40;;;;;;;9.05;100.00;98305.44;15267109;19;20018;-56
2022/11/08 01:24:08;;;;;;;3.47;1.33;;;;;;;9.08;100.00;98292.53;15272707;19;20021;-53
2022/11/08 01:29:36;;;;;;;4.10;1.40;;;;;;;9.01;100.00;98279.84;15271224;19;20014;-57
2022/11/08 01:35:00;;;;;;;5.05;1.48;;;;;;;8.97;100.00;98284.69;15266692;19;20010;-58
2022/11/08 01:40:25;;;;;;;4.32;1.33;;;;;;;8.97;100.00;98284.69;15271797;19;20014;-56
2022/11/08 01:46:38;;;;;;;3.45;1.40;;;;;;;8.93;100.00;98283.34;15258985;19;20013;-53
2022/11/08 01:52:10;;;;;;;4.00;1.42;;;;;;;8.89;100.00;98277.41;15267415;19;20051;-54
2022/11/08 01:57:42;;;;;;;4.45;1.30;;;;;;;8.83;100.00;98261.91;15264783;19;20845;-55
2022/11/08 02:03:12;;;;;;;4.57;1.43;;;;;;;8.81;100.00;98263.09;15270702;19;20018;-55
2022/11/08 02:08:46;;;;;;;3.85;1.33;;;;;;;8.76;100.00;98252.81;15262794;19;20011;-55
2022/11/08 02:14:11;;;;;;;4.80;1.45;;;;;;;8.67;100.00;98261.75;15268145;19;20031;-56
2022/11/08 02:19:47;;;;;;;4.80;1.58;;;;;;;8.61;100.00;98258.69;15265550;19;20018;-57
2022/11/08 02:25:15;;;;;;;5.03;1.45;;;;;;;8.52;100.00;98259.63;15265863;19;20036;-55
2022/11/08 02:30:41;;;;;;;5.00;1.55;;;;;;;8.47;100.00;98253.81;15267911;19;20018;-57
2022/11/08 02:36:09;;;;;;;4.10;1.65;;;;;;;8.44;100.00;98243.38;15262906;19;20014;-54
2022/11/08 02:41:36;;;;;;;4.78;1.58;;;;;;;8.37;100.00;98242.31;15266675;19;20479;-54
2022/11/08 02:47:01;;;;;;;5.82;1.77;;;;;;;8.32;100.00;98240.91;15257599;19;20018;-55
2022/11/08 02:52:25;;;;;;;5.38;1.90;;;;;;;8.29;100.00;98238.53;15265488;19;20530;-60
2022/11/08 02:57:52;;;;;;;3.63;1.65;;;;;;;8.27;100.00;98224.44;15269994;19;20050;-62
2022/11/08 03:03:17;;;;;;;4.60;1.70;;;;;;;8.24;100.00;98232.78;15279685;19;20018;-55
2022/11/08 03:08:42;;;;;;;6.57;1.90;;;;;;;8.21;100.00;98240.28;15270697;19;20014;-55
2022/11/08 03:14:09;;;;;;;6.65;1.83;;;;;;;8.21;100.00;98240.28;15278782;19;20019;-56
2022/11/08 03:19:33;;;;;;;8.32;1.90;;;;;;;8.23;100.00;98244.50;15273007;19;20010;-54
2022/11/08 03:24:58;;;;;;;5.90;1.77;;;;;;;8.35;100.00;98247.81;15279529;19;20030;-53
2022/11/08 03:30:25;;;;;;;4.95;1.60;;;;;;;8.44;100.00;98254.97;15280092;19;20014;-54
2022/11/08 03:35:51;;;;;;;4.38;1.60;;;;;;;8.52;100.00;98265.00;15273129;19;20014;-56
2022/11/08 03:41:16;;;;;;;3.47;1.52;;;;;;;8.52;100.00;98266.81;15280039;19;20018;-52
2022/11/08 03:46:43;;;;;;;4.55;1.40;;;;;;;8.56;100.00;98260.16;15272163;19;20086;-59
2022/11/08 03:52:08;;;;;;;5.70;1.63;;;;;;;8.55;100.00;98248.56;15275988;19;20013;-62
2022/11/08 03:57:32;;;;;;;6.78;1.70;;;;;;;8.56;100.00;98249.41;15268375;19;20011;-56
2022/11/08 04:03:02;;;;;;;8.68;1.58;;;;;;;8.64;100.00;98246.81;15274981;19;20030;-56
2022/11/08 04:08:27;;;;;;;5.65;1.50;;;;;;;8.86;100.00;98245.50;15269059;19;20022;-61
2022/11/08 04:25:10;;;;;;;4.80;1.33;;;;;;;8.61;100.00;98231.84;15266790;19;20025;-62
2022/11/08 04:30:34;;;;;;;4.13;1.50;;;;;;;8.57;100.00;98237.69;15274215;19;20006;-54
2022/11/08 04:36:05;;;;;;;4.05;1.40;;;;;;;8.60;100.00;98240.03;15268538;19;20773;-62
2022/11/08 04:41:31;;;;;;;;;;;;;;;8.56;100.00;98241.34;15274488;19;20811;-50
2022/11/08 04:46:56;;;;;;;4.03;1.50;;;;;;;8.57;100.00;98240.38;15270729;19;19923;-56
2022/11/08 04:52:23;;;;;;;4.00;1.58;;;;;;;8.55;100.00;98234.31;15276128;19;20480;-52
2022/11/08 04:57:41;;;;;;;4.03;1.50;;;;;;;8.48;100.00;98226.84;15262369;19;20019;-57
2022/11/08 05:03:07;;;;;;;5.53;1.60;;;;;;;8.49;100.00;98230.38;15274703;19;20014;-54
2022/11/08 05:08:34;;;;;;;4.63;1.40;;;;;;;8.46;100.00;98222.59;15266998;19;20026;-56
2022/11/08 05:13:59;;;;;;;3.72;1.75;;;;;;;8.44;100.00;98216.53;15272186;19;20026;-55
2022/11/08 05:25:04;;;;;;;5.40;1.38;;;;;;;8.45;100.00;98207.47;15271803;19;20043;-56
2022/11/08 05:30:30;;;;;;;3.33;1.23;;;;;;;8.42;100.00;98218.50;15266424;19;20035;-52
2022/11/08 05:35:56;;;;;;;4.55;1.45;;;;;;;8.44;100.00;98208.47;15266474;19;20011;-57
2022/11/08 05:41:27;;;;;;;4.00;1.30;;;;;;;8.44;100.00;98208.47;15265908;19;20014;-54
2022/11/08 05:46:52;;;;;;;3.80;1.38;;;;;;;8.51;100.00;98209.59;15261970;19;20363;-54
2022/11/08 05:52:16;;;;;;;3.00;1.25;;;;;;;8.48;100.00;98197.31;15270948;19;20467;-56
2022/11/08 05:57:46;;;;;;;3.70;1.40;;;;;;;8.45;100.00;98184.19;15265467;19;20034;-55
2022/11/08 06:03:11;;;;;;;3.40;1.17;;;;;;;8.36;100.00;98189.63;15265999;19;20021;-55
2022/11/08 06:08:42;;;;;;;2.72;1.25;;;;;;;8.31;100.00;98190.91;15269602;19;20010;-83
2022/11/08 06:14:12;;;;;;;3.70;1.13;;;;;;;8.27;100.00;98192.22;15279966;19;20420;-83
2022/11/08 06:19:37;;;;;;;6.40;1.60;;;;;;;8.20;100.00;98187.63;15276238;19;20019;-83
2022/11/08 06:25:01;;;;;;;6.28;1.40;;;;;;;8.18;100.00;98201.16;15282225;19;20025;-83
2022/11/08 06:30:28;;;;;;;4.60;1.45;;;;;;;8.18;100.00;98203.84;15280700;19;20086;-83
2022/11/08 06:35:53;;;;;;;2.92;1.27;;;;;;;8.20;100.00;98199.19;15298241;19;20018;-84
2022/11/08 06:41:21;;;;;;;3.83;1.30;;;;;;;8.17;100.00;98202.19;15307467;19;20019;-83
2022/11/08 06:46:48;;;;;;;2.85;1.20;;;;;;;8.19;100.00;98202.84;15290686;19;20014;-82
2022/11/08 06:52:13;;;;;;;2.58;1.20;;;;;;;8.24;100.00;98207.75;15315312;19;20018;-81
2022/11/08 06:57:37;;;;;;;1.90;1.08;;;;;;;8.29;100.00;98205.47;15307234;19;20112;-82
2022/11/08 07:03:05;;;;;;;5.07;1.48;;;;;;;8.30;100.00;98208.00;15308767;19;20046;-82
2022/11/08 07:08:37;;;;;;;4.60;1.30;;;;;;;8.33;100.00;98202.34;15288583;19;20011;-82
2022/11/08 07:14:02;;;;;;;2.83;1.10;;;;;;;8.37;100.00;98207.41;15297818;19;20793;-83
2022/11/08 07:19:29;;;;;;;3.35;1.20;;;;;;;8.39;100.00;98208.09;15295201;19;20013;-82
2022/11/08 07:24:54;;;;;;;2.45;1.00;;;;;;;8.39;100.00;98205.41;15297764;19;20011;-83
2022/11/08 07:30:19;;;;;;;4.25;1.20;;;;;;;8.43;100.00;98212.16;15289758;19;20014;-83
2022/11/08 07:35:47;;;;;;;3.17;1.20;;;;;;;8.49;100.00;98216.97;15297270;19;20463;-82
2022/11/08 07:41:12;;;;;;;2.55;0.98;;;;;;;8.54;100.00;98211.97;15294307;19;20018;-84
2022/11/08 07:46:37;;;;;;;3.65;1.00;;;;;;;8.65;100.00;98216.25;15300160;19;20376;-81
2022/11/08 07:52:11;;;;;;;2.33;1.08;;;;;;;8.82;100.00;98214.56;15269975;19;20484;-61
2022/11/08 07:57:36;;;;;;;2.83;1.00;;;;;;;8.93;100.00;98208.13;15272761;19;20006;-60
2022/11/08 08:03:05;;;;;;;3.47;1.17;;;;;;;9.06;100.00;98196.94;15278636;19;20018;-62
2022/11/08 08:08:32;;;;;;;2.53;0.95;;;;;;;9.19;100.00;98185.75;15272255;19;20086;-62
2022/11/08 08:13:56;;;;;;;2.80;1.05;;;;;;;9.29;100.00;98186.50;15274945;19;20033;-62
2022/11/08 08:19:22;;;;;;;2.42;1.10;;;;;;;9.48;100.00;98188.13;15272067;19;20394;-62
2022/11/08 08:24:49;;;;;;;2.83;1.00;;;;;;;9.68;100.00;98172.59;15277498;19;20372;-62
2022/11/08 08:30:21;;;;;;;2.95;1.08;;;;;;;9.85;100.00;98176.19;15277532;19;20011;-62
2022/11/08 08:35:47;;;;;;;3.28;1.23;;;;;;;10.05;100.00;98175.06;15275232;19;20501;-62
2022/11/08 08:41:14;;;;;;;3.00;1.20;;;;;;;10.29;100.00;98160.84;15278487;19;20011;-61
2022/11/08 08:46:39;;;;;;;7.00;1.90;;;;;;;10.53;100.00;98159.16;15269211;19;20022;-62
2022/11/08 08:52:10;;;;;;;2.55;1.00;;;;;;;10.67;100.00;98149.59;15279648;19;20023;-61
2022/11/08 08:57:37;;;;;;;4.30;1.10;;;;;;;10.76;100.00;98130.53;15271497;19;20019;-60
2022/11/08 09:03:02;;;;;;;2.72;0.90;;;;;;;10.91;100.00;98132.56;15276766;19;20363;-62
2022/11/08 09:08:27;;;;;;;2.42;1.00;;;;;;;11.03;100.00;98131.19;15272066;19;20449;-61
2022/11/08 09:13:54;;;;;;;3.15;1.00;;;;;;;11.20;100.00;98141.94;15276176;19;20018;-62
2022/11/08 09:19:19;;;;;;;1.88;0.80;;;;;;;11.34;100.00;98135.84;15266331;19;20018;-63
2022/11/08 09:24:43;;;;;;;2.42;0.90;;;;;;;11.44;100.00;98135.63;15278072;19;20087;-63
2022/11/08 09:30:12;;;;;;;2.50;1.00;;;;;;;11.56;100.00;98139.63;15276279;19;20509;-62
2022/11/08 09:35:37;;;;;;;3.47;1.00;;;;;;;11.62;100.00;98130.00;15276732;19;20025;-62
2022/11/08 09:41:31;;;;;;;1.85;1.00;;;;;;;11.71;100.00;98118.16;15276094;19;20018;-62
2022/11/08 09:47:01;;;;;;;2.20;0.70;;;;;;;11.88;100.00;98124.31;15268105;19;20210;-63
2022/11/08 09:52:30;;;;;;;2.42;0.80;;;;;;;12.02;100.00;98103.84;15275037;19;20014;-61
2022/11/08 09:58:06;;;;;;;2.92;0.90;;;;;;;12.23;100.00;98088.84;15272651;19;20018;-63
2022/11/08 10:03:35;;;;;;;2.05;0.60;;;;;;;12.39;100.00;98097.88;15275622;19;20081;-61
2022/11/08 10:09:07;;;;;;;1.30;0.80;;;;;;;12.59;100.00;98080.13;15269850;19;20101;-61
2022/11/08 10:14:40;;;;;;;1.55;0.70;;;;;;;12.73;100.00;98083.03;15275942;19;20014;-60
2022/11/08 10:20:37;;;;;;;2.10;0.60;;;;;;;12.95;100.00;98073.19;15269191;19;20495;-59
2022/11/08 10:26:11;;;;;;;1.73;0.80;;;;;;;13.12;100.00;98065.72;15275286;19;20044;-62
2022/11/08 10:31:47;;;;;;;2.67;0.70;;;;;;;13.29;100.00;98052.00;15277923;19;20022;-63
2022/11/08 10:37:16;;;;;;;1.27;0.70;;;;;;;13.43;100.00;98050.34;15313713;19;20035;-60
2022/11/08 10:42:48;;;;;;;1.25;0.60;;;;;;;13.59;100.00;98030.34;15339068;19;20010;-60
2022/11/08 10:48:14;;;;;;;1.85;0.60;;;;;;;13.69;100.00;98028.19;15277042;19;20017;-60
2022/11/08 10:53:42;;;;;;;0.88;0.50;;;;;;;13.86;100.00;98035.03;15259414;19;20053;-61
2022/11/08 10:59:28;;;;;;;2.72;0.70;;;;;;;14.02;100.00;98028.53;15261306;19;20026;-61
2022/11/08 11:04:52;;;;;;;1.17;0.50;;;;;;;14.17;100.00;98016.78;15264407;19;20086;-61
2022/11/08 11:10:28;;;;;;;1.88;0.60;;;;;;;14.30;100.00;98018.75;15265158;19;20030;-61
2022/11/08 11:15:57;;;;;;;1.08;0.45;;;;;;;14.44;100.00;98023.28;15264921;19;20022;-61
2022/11/08 11:21:25;;;;;;;2.10;0.50;;;;;;;14.57;100.00;98017.13;15279703;19;20010;-61
2022/11/08 11:26:56;;;;;;;1.80;0.50;;;;;;;14.66;100.00;98015.09;15267415;19;20026;-61
2022/11/08 11:32:27;;;;;;;2.13;0.60;;;;;;;14.73;100.00;98024.16;14770427;19;10000325;-61
2022/11/08 11:37:53;;;;;;;1.97;0.60;;;;;;;14.79;100.00;98009.78;15274938;19;20474;-62
2022/11/08 11:43:27;;;;;;;0.70;0.50;;;;;;;14.83;100.00;98010.22;15277324;19;20267;-61
2022/11/08 11:48:55;;;;;;;0.57;0.40;;;;;;;14.90;100.00;97988.56;15272787;19;20017;-61
2022/11/08 11:54:20;;;;;;;0.47;0.40;;;;;;;14.94;100.00;97993.38;15278422;19;20049;-61
2022/11/08 12:00:00;;;;;;;2.22;0.45;;;;;;;15.01;100.00;97990.72;15267708;19;20399;-61
2022/11/08 12:05:39;;;;;;;1.20;0.43;;;;;;;15.22;100.00;97999.81;15277247;19;20014;-61
2022/11/08 12:11:23;;;;;;;0.70;0.50;;;;;;;15.43;100.00;97990.69;15277313;19;20006;-60
2022/11/08 12:17:04;;;;;;;0.85;0.40;;;;;;;15.55;100.00;97977.38;15274436;19;20023;-62
2022/11/08 12:22:46;;;;;;;0.87;0.50;;;;;;;15.52;100.00;97980.50;15277003;19;20013;-61
2022/11/08 12:28:32;;;;;;;3.40;0.50;;;;;;;15.47;100.00;97969.41;15270670;19;20287;-60
2022/11/08 12:34:23;;;;;;;0.55;0.30;;;;;;;15.54;100.00;97964.84;15274029;19;20025;-61
2022/11/08 12:39:53;;;;;;;1.30;0.40;;;;;;;15.70;100.00;97958.19;15270446;19;20368;-61
2022/11/08 12:45:32;;;;;;;0.77;0.45;;;;;;;15.70;100.00;97936.47;15274221;19;20022;-61
2022/11/08 12:51:15;;;;;;;0.63;0.35;;;;;;;15.74;91.53;97936.88;15273280;19;20010;-61
2022/11/08 12:56:44;;;;;;;0.65;0.43;;;;;;;15.77;100.00;97936.50;15270366;19;20014;-61
2022/11/08 13:02:10;;;;;;;0.75;0.45;;;;;;;15.84;100.00;97934.59;15267254;19;20048;-61
2022/11/08 13:07:46;;;;;;;1.35;0.45;;;;;;;16.01;95.37;97926.91;15270866;19;20018;-61
2022/11/08 13:13:20;;;;;;;1.02;0.30;;;;;;;16.06;89.75;97912.69;15272582;19;20013;-59
2022/11/08 13:18:48;;;;;;;0.50;0.30;;;;;;;16.20;94.16;97927.13;15270516;19;20006;-61
2022/11/08 13:24:42;;;;;;;2.58;0.50;;;;;;;16.35;96.77;97930.44;15273643;19;20035;-61
2022/11/08 13:30:36;;;;;;;1.60;0.75;;;;;;;16.44;95.33;97920.19;15270364;19;20006;-61
2022/11/08 13:36:10;;;;;;;1.38;0.47;;;;;;;16.30;100.00;97922.94;15265033;19;20463;-61
2022/11/08 13:42:05;;;;;;;0.93;0.50;;;;;;;16.17;100.00;97921.06;15271600;19;20418;-63
2022/11/08 13:48:00;;;;;;;1.13;0.60;;;;;;;16.38;100.00;97918.34;15269763;19;20018;-61
2022/11/08 13:53:56;;;;;;;1.63;0.50;;;;;;;16.41;100.00;97904.31;15272632;19;20086;-61
2022/11/08 14:00:00;;;;;;;3.97;2.10;;;;;;;16.30;100.00;97917.50;15264524;19;20018;-61
2022/11/08 14:05:33;;;;;;;0.80;0.50;;;;;;;16.18;100.00;97909.16;15266320;19;20010;-61
2022/11/08 14:11:39;;;;;;;1.25;0.45;;;;;;;16.14;100.00;97897.03;15261957;19;20094;-62
2022/11/08 14:17:28;;;;;;;0.90;0.47;;;;;;;16.02;100.00;97902.28;15265974;19;20069;-61
2022/11/08 14:22:55;;;;;;;0.82;0.40;;;;;;;16.04;100.00;97896.63;15268727;19;20364;-62
2022/11/08 14:28:25;;;;;;;0.98;0.40;;;;;;;16.11;100.00;97883.84;15264814;19;20017;-61
2022/11/08 14:33:50;;;;;;;0.55;0.30;;;;;;;15.95;100.00;97879.69;15269095;19;20049;-61
2022/11/08 14:39:19;;;;;;;2.30;0.40;;;;;;;15.75;94.64;97882.38;15256330;19;20022;-62
2022/11/08 14:44:43;;;;;;;1.67;0.50;;;;;;;15.56;100.00;97878.59;15265647;19;20021;-62
2022/11/08 14:50:24;;;;;;;1.25;0.50;;;;;;;15.28;89.82;97885.00;15263358;19;20538;-62
2022/11/08 14:55:57;;;;;;;1.40;1.17;;;;;;;15.02;92.51;97881.19;15277057;19;20011;-62
2022/11/08 15:01:24;;;;;;;1.42;0.55;;;;;;;14.71;100.00;97877.09;15281529;19;20372;-62
2022/11/08 15:06:52;;;;;;;0.82;0.60;;;;;;;14.59;100.00;97898.47;15277002;19;20014;-61
2022/11/08 15:12:23;;;;;;;1.45;0.90;;;;;;;14.43;100.00;97910.47;15275941;19;20014;-60
2022/11/08 15:17:49;;;;;;;1.05;0.90;;;;;;;14.20;100.00;97909.91;15274582;19;20487;-62
2022/11/08 15:23:32;;;;;;;2.30;0.80;;;;;;;14.03;100.00;97900.19;15279475;19;20014;-60
2022/11/08 15:29:20;;;;;;;1.02;0.90;;;;;;;13.90;100.00;97899.25;15273327;19;20039;-61
2022/11/08 15:34:47;;;;;;;1.60;0.70;;;;;;;13.77;100.00;97890.00;15274877;19;20015;-61
2022/11/08 15:40:20;;;;;;;1.33;0.70;;;;;;;13.61;100.00;97895.66;15273762;19;20011;-60
2022/11/08 15:46:01;;;;;;;0.60;0.60;;;;;;;13.39;100.00;97893.81;15266549;19;20019;-61
2022/11/08 15:51:32;;;;;;;1.53;0.60;;;;;;;13.23;100.00;97884.00;15271112;19;20027;-59
2022/11/08 15:56:58;;;;;;;0.57;0.47;;;;;;;13.07;100.00;97879.69;15268538;19;20271;-60
2022/11/08 16:02:25;;;;;;;0.50;0.50;;;;;;;12.97;100.00;97875.63;15272071;19;20031;-62
2022/11/08 16:07:50;;;;;;;0.95;0.60;;;;;;;12.79;100.00;97880.41;15268733;19;20043;-61
2022/11/08 16:13:18;;;;;;;1.25;0.70;;;;;;;12.75;100.00;97881.00;15273043;19;20006;-61
2022/11/08 16:18:46;;;;;;;1.23;0.60;;;;;;;12.63;100.00;97877.91;15264689;19;20031;-63
2022/11/08 16:24:10;;;;;;;0.65;0.65;;;;;;;12.55;100.00;97880.72;15274787;19;20386;-62
2022/11/08 16:29:36;;;;;;;0.80;0.63;;;;;;;12.42;100.00;97881.34;15268052;19;20479;-61
2022/11/08 16:35:03;;;;;;;1.48;0.73;;;;;;;12.25;100.00;97878.00;15271807;19;20021;-61
2022/11/08 16:40:28;;;;;;;2.53;0.80;;;;;;;12.06;100.00;97877.53;15268255;19;20828;-61
2022/11/08 16:45:52;;;;;;;1.02;0.70;;;;;;;12.05;100.00;97885.84;15271614;19;20035;-61
2022/11/08 16:51:33;;;;;;;1.00;0.80;;;;;;;11.97;100.00;97898.34;15260806;19;20033;-61
2022/11/08 16:56:59;;;;;;;1.60;0.90;;;;;;;11.93;100.00;97894.34;15259170;19;20284;-61
2022/11/08 17:02:45;;;;;;;1.58;1.20;;;;;;;11.91;100.00;97890.97;15270749;19;20010;-61
2022/11/08 17:08:13;;;;;;;3.55;1.63;;;;;;;11.88;100.00;97888.66;15266169;19;20010;-61
2022/11/08 17:13:37;;;;;;;1.60;1.40;;;;;;;11.85;100.00;97879.06;15270858;19;20025;-60
2022/11/08 17:19:02;;;;;;;1.65;1.40;;;;;;;11.87;100.00;97895.91;15266310;19;20014;-60
2022/11/08 17:24:29;;;;;;;2.22;1.48;;;;;;;11.87;100.00;97889.66;15271371;19;20022;-60
2022/11/08 17:29:54;;;;;;;2.10;1.40;;;;;;;11.83;100.00;97891.91;15267665;19;20011;-60
2022/11/08 17:35:20;;;;;;;1.88;1.02;;;;;;;11.83;100.00;97900.00;15265351;19;20018;-60
2022/11/08 17:40:48;;;;;;;1.30;0.80;;;;;;;11.79;100.00;97893.28;15267759;19;20010;-61
2022/11/08 17:46:14;;;;;;;1.75;0.80;;;;;;;11.80;100.00;97886.03;15263808;19;20018;-59
2022/11/08 17:51:46;;;;;;;0.68;0.63;;;;;;;11.78;100.00;97886.19;15241488;19;20633;-61
2022/11/08 17:57:14;;;;;;;0.60;0.60;;;;;;;11.79;100.00;97900.53;15259971;19;20098;-61
2022/11/08 18:02:39;;;;;;;1.33;0.88;;;;;;;11.76;100.00;97898.19;15269111;19;20243;-61
2022/11/08 18:08:10;;;;;;;1.30;0.80;;;;;;;11.75;100.00;97901.91;15252994;19;20027;-57
2022/11/08 18:13:45;;;;;;;2.38;0.82;;;;;;;11.70;100.00;97905.97;15268605;19;20010;-55
2022/11/08 18:19:10;;;;;;;1.10;0.70;;;;;;;11.68;100.00;97905.34;15263784;19;20010;-54
2022/11/08 18:24:35;;;;;;;2.03;0.70;;;;;;;11.71;100.00;97906.84;15263231;19;20034;-54
2022/11/08 18:30:08;;;;;;;2.13;0.80;;;;;;;11.72;100.00;97912.03;15295994;19;20092;-54
2022/11/08 18:35:33;;;;;;;0.80;0.73;;;;;;;11.84;100.00;97911.59;15294076;19;20022;-55
2022/11/08 18:40:58;;;;;;;1.83;0.90;;;;;;;11.88;100.00;97918.34;15293999;19;20010;-53
2022/11/08 18:46:27;;;;;;;1.10;1.00;;;;;;;11.91;100.00;97911.72;15294674;19;20011;-55
2022/11/08 18:51:59;;;;;;;1.38;1.00;;;;;;;11.92;100.00;97918.81;15291558;19;20348;-53
2022/11/08 18:57:24;;;;;;;1.30;0.90;;;;;;;11.91;100.00;97915.28;15283198;19;20013;-51
2022/11/08 19:02:51;;;;;;;1.20;0.90;;;;;;;11.94;100.00;97917.59;15291804;19;20014;-55
2022/11/08 19:08:23;;;;;;;2.45;0.90;;;;;;;11.94;100.00;97917.59;15284585;19;20055;-52
2022/11/08 19:13:49;;;;;;;1.95;0.90;;;;;;;11.97;100.00;97911.00;15289309;19;20495;-52
2022/11/08 19:19:16;;;;;;;1.42;0.90;;;;;;;12.03;100.00;97907.59;15288899;19;20022;-53
2022/11/08 19:24:41;;;;;;;2.78;0.90;;;;;;;12.07;100.00;97908.06;15293882;19;20031;-53
2022/11/08 19:30:05;;;;;;;0.90;0.80;;;;;;;12.05;100.00;97904.72;15287220;19;20043;-53
2022/11/08 19:35:35;;;;;;;1.73;0.90;;;;;;;12.02;100.00;97904.06;15288891;19;20029;-53
2022/11/08 19:41:00;;;;;;;1.20;1.10;;;;;;;12.03;100.00;97913.00;15272295;19;20007;-55
2022/11/08 19:46:27;;;;;;;1.73;1.00;;;;;;;12.05;100.00;97908.25;15277001;19;20011;-55
2022/11/08 19:51:54;;;;;;;1.27;0.98;;;;;;;12.10;100.00;97899.59;15273566;19;20011;-52
2022/11/08 19:57:19;;;;;;;1.70;1.00;;;;;;;12.07;100.00;97905.34;15267750;19;20481;-57
2022/11/08 20:02:44;;;;;;;1.60;0.82;;;;;;;12.08;100.00;97898.94;15272316;19;20029;-54
2022/11/08 20:08:18;;;;;;;2.25;1.80;;;;;;;12.09;100.00;97895.22;15272534;19;20014;-55
2022/11/08 20:13:43;;;;;;;3.70;1.10;;;;;;;12.09;100.00;97908.72;15275872;19;20006;-51
2022/11/08 20:19:11;;;;;;;2.60;1.00;;;;;;;12.12;100.00;97897.56;15270656;19;20021;-55
2022/11/08 20:24:39;;;;;;;1.40;0.90;;;;;;;12.10;100.00;97899.59;15276186;19;20106;-51
2022/11/08 20:30:04;;;;;;;2.45;1.05;;;;;;;12.14;100.00;97906.31;15274253;19;20017;-55
2022/11/08 20:35:28;;;;;;;1.92;1.00;;;;;;;12.13;100.00;97899.25;15266097;19;20795;-59
2022/11/08 20:40:56;;;;;;;1.23;0.80;;;;;;;12.16;100.00;97899.69;15269037;19;20437;-52
2022/11/08 20:46:24;;;;;;;2.78;0.90;;;;;;;12.18;100.00;97900.38;15271418;19;20018;-55
2022/11/08 20:51:49;;;;;;;1.25;0.85;;;;;;;12.20;100.00;97902.03;15271867;19;20466;-54
2022/11/08 20:57:16;;;;;;;1.15;0.80;;;;;;;12.20;100.00;97900.16;15269553;19;20642;-54
2022/11/08 21:02:40;;;;;;;0.75;0.70;;;;;;;12.24;100.00;97906.03;15273683;19;20598;-56
2022/11/08 21:08:04;;;;;;;1.38;0.77;;;;;;;12.21;100.00;97895.63;15261678;19;20023;-56
2022/11/08 21:13:53;;;;;;;2.22;0.80;;;;;;;12.21;100.00;97896.44;15272292;19;20022;-57
2022/11/08 21:19:18;;;;;;;1.25;0.70;;;;;;;12.23;100.00;97899.81;15265286;19;20018;-49
2022/11/08 21:24:43;;;;;;;2.08;0.80;;;;;;;12.21;100.00;97896.44;15271555;19;20010;-59
2022/11/08 21:30:13;;;;;;;2.28;0.65;;;;;;;12.21;100.00;97909.94;15270966;19;20011;-55
2022/11/08 21:35:37;;;;;;;2.33;0.70;;;;;;;12.12;100.00;97903.78;15270413;19;20134;-55
2022/11/08 21:41:04;;;;;;;0.82;0.52;;;;;;;12.13;100.00;97913.56;15262095;19;20094;-52
2022/11/08 21:46:33;;;;;;;0.60;0.57;;;;;;;12.13;100.00;97907.34;15268794;19;20010;-54
2022/11/08 21:51:58;;;;;;;1.70;0.77;;;;;;;12.06;100.00;97900.97;15269982;19;20026;-53
2022/11/08 21:57:23;;;;;;;1.25;0.60;;;;;;;12.01;100.00;97907.78;15266033;19;20013;-51
2022/11/08 22:02:51;;;;;;;0.82;0.70;;;;;;;11.94;100.00;97906.78;15263802;19;20010;-50
2022/11/08 22:08:15;;;;;;;1.08;0.60;;;;;;;11.88;100.00;97896.75;15264306;19;20054;-51
2022/11/08 22:13:39;;;;;;;1.02;0.75;;;;;;;11.77;100.00;97906.09;15265339;19;20015;-52
2022/11/08 22:19:07;;;;;;;0.70;0.60;;;;;;;11.67;100.00;97909.06;15265443;19;20006;-54
2022/11/08 22:24:31;;;;;;;0.80;0.70;;;;;;;11.57;100.00;97905.78;15269761;19;20014;-58
2022/11/08 22:29:56;;;;;;;1.67;0.70;;;;;;;11.47;100.00;97906.00;15267449;19;20011;-54
2022/11/08 22:35:23;;;;;;;1.00;0.70;;;;;;;11.35;100.00;97902.88;15265601;19;20007;-50
2022/11/08 22:40:49;;;;;;;1.55;0.60;;;;;;;11.26;100.00;97895.88;15265251;19;20015;-52
2022/11/08 22:46:14;;;;;;;0.98;0.60;;;;;;;11.16;100.00;97885.34;15260074;19;20021;-53
2022/11/08 22:51:41;;;;;;;0.75;0.70;;;;;;;11.06;100.00;97893.63;15268567;19;20374;-53
2022/11/08 22:57:06;;;;;;;4.32;0.90;;;;;;;10.98;100.00;97896.38;15263472;19;20135;-57
2022/11/08 23:02:31;;;;;;;1.25;0.77;;;;;;;10.88;100.00;97896.59;15261894;19;20029;-56
2022/11/08 23:07:58;;;;;;;0.80;0.65;;;;;;;10.76;100.00;97889.91;15262236;19;20046;-55
2022/11/08 23:24:41;;;;;;;0.90;0.63;;;;;;;10.87;100.00;97894.09;15282307;19;20017;-54
2022/11/08 23:36:09;;;;;;;0.82;0.60;;;;;;;10.91;100.00;97903.47;15278827;19;20011;-55
2022/11/08 23:47:10;;;;;;;1.25;0.77;;;;;;;10.95;100.00;97896.72;15275704;19;20021;-55
2022/11/08 23:52:34;;;;;;;0.77;0.68;;;;;;;10.98;100.00;97899.09;15278998;19;20015;-58
2022/11/08 23:58:02;;;;;;;1.42;0.80;;;;;;;10.98;100.00;97893.69;15274724;19;20023;-50
